Time;durP1;ratioP1;P1;durP2;ratioP2;P2;SDS_P1;SDS_P2;PMS_P1;PMS_P2;Temp;Humidity;BMP_temperature;BMP_pressure;BME280_temperature;BME280_humidity;BME280_pressure;Samples;Min_cycle;Max_cycle;Signal;HPM_P1;HPM_P2
2022/04/28 00:02:22;;;;;;;;;;;;;;;13.66;52.86;101651.13;4902221;28;98000;-66
2022/04/28 00:04:48;;;;;;;;;;;;;;;13.63;52.82;101644.31;4921371;28;115229;-66
2022/04/28 00:07:14;;;;;;;;;;;;;;;13.60;52.93;101646.75;4920564;28;128118;-63
2022/04/28 00:09:40;;;;;;;;;;;;;;;13.59;52.78;101653.22;4921385;28;98311;-63
2022/04/28 00:12:06;;;;;;;;;;;;;;;13.56;52.94;101651.88;4921161;28;120954;-66
2022/04/28 00:14:33;;;;;;;;;;;;;;;13.54;52.86;101647.78;4920974;28;114500;-66
2022/04/28 00:16:59;;;;;;;;;;;;;;;13.51;52.78;101649.91;4921605;28;98410;-64
2022/04/28 00:19:25;;;;;;;;;;;;;;;13.49;52.82;101651.25;4921161;28;127513;-63
2022/04/28 00:21:51;;;;;;;;;;;;;;;13.47;52.78;101653.41;4938207;28;121735;-63
2022/04/28 00:24:16;;;;;;;;;;;;;;;13.45;53.07;101648.25;4919464;28;127318;-65
2022/04/28 00:26:42;;;;;;;;;;;;;;;13.42;52.83;101646.06;4920035;28;127871;-66
2022/04/28 00:29:08;;;;;;;;;;;;;;;13.40;52.97;101648.22;4901215;28;126556;-66
2022/04/28 00:31:34;;;;;;;;;;;;;;;13.38;52.96;101653.06;4901296;28;121498;-66
2022/04/28 00:34:00;;;;;;;;;;;;;;;13.36;52.83;101648.97;4900712;28;128110;-66
2022/04/28 00:36:26;;;;;;;;;;;;;;;13.34;53.10;101646.53;4906406;28;123343;-63
2022/04/28 00:38:52;;;;;;;;;;;;;;;13.34;52.97;101648.41;4901480;28;123379;-66
2022/04/28 00:41:18;;;;;;;;;;;;;;;13.31;52.95;101648.94;4915033;28;122911;-63
2022/04/28 00:43:48;;;;;;;;;;;;;;;13.29;52.95;101653.78;4901240;28;109278;-63
2022/04/28 00:46:14;;;;;;;;;;;;;;;13.26;53.08;101655.94;4908534;28;98752;-63
2022/04/28 00:51:25;;;;;;;;;;;;;;;13.22;53.11;101653.97;4918796;28;100198;-63
2022/04/28 00:53:51;;;;;;;;;;;;;;;13.20;52.97;101651.53;4934510;28;128518;-63
2022/04/28 00:56:17;;;;;;;;;;;;;;;13.18;53.10;101652.84;4921056;28;127031;-63
2022/04/28 00:58:43;;;;;;;;;;;;;;;13.16;53.16;101652.28;4920769;28;97793;-64
2022/04/28 01:01:09;;;;;;;;;;;;;;;13.14;52.93;101654.44;4920680;28;121160;-65
2022/04/28 01:03:35;;;;;;;;;;;;;;;13.12;53.02;101656.56;4921214;28;98918;-63
2022/04/28 01:06:04;;;;;;;;;;;;;;;13.09;53.19;101651.69;4919315;28;129000;-65
2022/04/28 01:08:30;;;;;;;;;;;;;;;13.08;53.03;101655.44;4920181;28;98638;-63
2022/04/28 01:10:56;;;;;;;;;;;;;;;13.06;53.10;101657.59;4921001;28;98027;-63
2022/04/28 01:13:22;;;;;;;;;;;;;;;13.03;53.21;101657.03;4920228;28;100786;-66
2022/04/28 01:15:49;;;;;;;;;;;;;;;13.02;53.12;101654.59;4920010;28;99017;-63
2022/04/28 01:18:15;;;;;;;;;;;;;;;12.98;53.11;101653.47;4920028;28;124934;-63
2022/04/28 01:20:42;;;;;;;;;;;;;;;12.97;53.30;101663.47;4922195;28;98124;-65
2022/04/28 01:23:08;;;;;;;;;;;;;;;12.94;53.22;101663.16;4920948;28;98857;-66
2022/04/28 01:25:36;;;;;;;;;;;;;;;12.93;53.20;101661.50;4919650;28;128143;-66
2022/04/28 01:28:02;;;;;;;;;;;;;;;12.91;53.22;101664.47;4919536;28;97869;-64
2022/04/28 01:30:28;;;;;;;;;;;;;;;12.90;53.29;101662.03;4910537;28;111028;-65
2022/04/28 01:32:57;;;;;;;;;;;;;;;12.88;53.28;101661.44;4919090;28;98424;-66
2022/04/28 01:35:23;;;;;;;;;;;;;;;12.86;53.10;101663.59;4933972;28;99038;-63
2022/04/28 01:37:49;;;;;;;;;;;;;;;12.85;53.40;101661.94;4920325;28;98108;-65
2022/04/28 01:40:16;;;;;;;;;;;;;;;12.83;53.29;101669.53;4919157;28;123196;-66
2022/04/28 01:42:43;;;;;;;;;;;;;;;12.81;53.29;101667.06;4920528;28;99531;-66
2022/04/28 01:45:09;;;;;;;;;;;;;;;12.80;53.27;101670.84;4919814;28;126257;-67
2022/04/28 01:47:35;;;;;;;;;;;;;;;12.77;53.20;101668.63;4919770;28;98003;-63
2022/04/28 01:50:02;;;;;;;;;;;;;;;12.76;53.34;101672.41;4919859;28;97926;-66
2022/04/28 01:55:12;;;;;;;;;;;;;;;12.73;53.23;101667.50;4917512;28;98302;-63
2022/04/28 01:57:39;;;;;;;;;;;;;;;12.69;53.16;101661.81;4936299;28;127561;-63
2022/04/28 02:00:06;;;;;;;;;;;;;;;12.69;53.20;101669.91;4920099;28;98089;-65
2022/04/28 02:02:32;;;;;;;;;;;;;;;12.69;53.48;101674.47;4933529;28;98796;-66
2022/04/28 02:05:01;;;;;;;;;;;;;;;12.66;53.40;101677.72;4920394;28;98483;-65
2022/04/28 02:07:30;;;;;;;;;;;;;;;12.65;53.27;101679.56;4919382;28;98006;-63
2022/04/28 02:09:56;;;;;;;;;;;;;;;12.63;53.42;101680.91;4918747;28;121155;-66
2022/04/28 02:12:22;;;;;;;;;;;;;;;12.62;53.37;101676.59;4919393;28;122329;-66
2022/04/28 02:14:48;;;;;;;;;;;;;;;12.60;53.53;101684.94;4919997;28;100697;-63
2022/04/28 02:17:21;;;;;;;;;;;;;;;12.59;53.32;101679.78;4918356;28;127981;-67
2022/04/28 02:19:48;;;;;;;;;;;;;;;12.57;53.38;101680.03;4923044;28;119699;-63
2022/04/28 02:22:14;;;;;;;;;;;;;;;12.56;53.49;101683.81;4918877;28;127874;-63
2022/04/28 02:24:39;;;;;;;;;;;;;;;12.55;53.59;101675.94;4919265;28;128442;-66
2022/04/28 02:27:05;;;;;;;;;;;;;;;12.52;53.37;101672.66;4929981;28;127741;-66
2022/04/28 02:29:32;;;;;;;;;;;;;;;12.51;53.52;101676.44;4913681;28;120759;-65
2022/04/28 02:31:58;;;;;;;;;;;;;;;12.50;53.36;101682.94;4916870;28;109446;-63
2022/04/28 02:34:23;;;;;;;;;;;;;;;12.49;53.39;101686.69;4919201;28;114345;-66
2022/04/28 02:36:49;;;;;;;;;;;;;;;12.46;53.47;101676.38;4918951;28;127665;-66
2022/04/28 02:39:17;;;;;;;;;;;;;;;12.44;53.64;101670.41;4917710;28;98339;-63
2022/04/28 02:41:43;;;;;;;;;;;;;;;12.43;53.61;101671.47;4919176;28;98238;-63
2022/04/28 02:44:10;;;;;;;;;;;;;;;12.41;53.44;101665.47;4916323;28;118395;-66
2022/04/28 02:46:36;;;;;;;;;;;;;;;12.40;53.93;101674.66;4936287;28;97876;-63
2022/04/28 02:49:02;;;;;;;;;;;;;;;12.40;53.65;101674.66;4921798;28;121714;-63
2022/04/28 02:51:28;;;;;;;;;;;;;;;12.39;53.87;101670.34;4923148;28;99250;-63
2022/04/28 02:53:54;;;;;;;;;;;;;;;12.38;53.93;101675.97;4922607;28;98417;-66
2022/04/28 02:56:20;;;;;;;;;;;;;;;12.37;53.55;101669.75;4929983;28;128473;-66
2022/04/28 02:58:46;;;;;;;;;;;;;;;12.37;53.70;101671.66;4929534;28;104365;-64
2022/04/28 03:01:12;;;;;;;;;;;;;;;12.34;53.80;101678.38;4921745;28;109777;-66
2022/04/28 03:03:38;;;;;;;;;;;;;;;12.34;53.67;101674.84;4921650;28;127351;-63
2022/04/28 03:11:33;;;;;;;;;;;;;;;12.31;53.82;101680.78;4919046;28;98122;-67
2022/04/28 03:13:59;;;;;;;;;;;;;;;12.29;53.66;101684.53;4920643;28;103141;-67
2022/04/28 03:16:25;;;;;;;;;;;;;;;12.28;53.88;101680.19;4921883;28;122849;-64
2022/04/28 03:18:51;;;;;;;;;;;;;;;12.28;53.83;101677.47;4921210;28;121418;-63
2022/04/28 03:21:17;;;;;;;;;;;;;;;12.27;54.01;101686.66;4929102;28;99687;-67
2022/04/28 03:23:43;;;;;;;;;;;;;;;12.26;53.68;101679.63;4922020;28;98363;-67
2022/04/28 03:26:09;;;;;;;;;;;;;;;12.26;53.80;101685.03;4922035;28;125591;-65
2022/04/28 03:28:36;;;;;;;;;;;;;;;12.26;53.92;101684.19;4936550;28;98627;-63
2022/04/28 03:31:05;;;;;;;;;;;;;;;12.25;53.51;101682.56;4921238;28;99148;-64
2022/04/28 03:33:31;;;;;;;;;;;;;;;12.24;53.69;101687.16;4922086;28;98319;-64
2022/04/28 03:35:57;;;;;;;;;;;;;;;12.23;53.92;101690.13;4921749;28;127938;-66
2022/04/28 03:38:22;;;;;;;;;;;;;;;12.22;54.13;101694.72;4920394;28;122408;-66
2022/04/28 03:40:49;;;;;;;;;;;;;;;12.21;54.00;101689.53;4920986;28;128250;-65
2022/04/28 03:43:14;;;;;;;;;;;;;;;12.21;53.82;101694.94;4935616;28;125284;-65
2022/04/28 03:45:41;;;;;;;;;;;;;;;12.21;53.94;101700.34;4922238;28;98448;-66
2022/04/28 03:48:10;;;;;;;;;;;;;;;12.19;53.81;101700.63;4921838;28;97903;-66
2022/04/28 03:50:36;;;;;;;;;;;;;;;12.19;53.88;101703.31;4921667;28;99528;-66
2022/04/28 03:53:02;;;;;;;;;;;;;;;12.17;53.91;101702.72;4918731;28;114489;-64
2022/04/28 03:55:28;;;;;;;;;;;;;;;12.19;53.91;101713.31;4922732;28;120292;-66
2022/04/28 03:57:54;;;;;;;;;;;;;;;12.18;54.10;101714.38;4935492;28;122223;-66
2022/04/28 04:00:20;;;;;;;;;;;;;;;12.19;53.94;101718.72;4921606;28;98302;-64
2022/04/28 04:02:47;;;;;;;;;;;;;;;12.18;54.30;101722.47;4921269;28;98241;-66
2022/04/28 04:05:13;;;;;;;;;;;;;;;12.17;54.27;101724.34;4936085;28;98446;-65
2022/04/28 04:07:39;;;;;;;;;;;;;;;12.19;54.10;101729.53;4922015;28;113858;-66
2022/04/28 04:10:06;;;;;;;;;;;;;;;12.17;53.96;101729.75;4921415;28;98746;-67
2022/04/28 04:12:32;;;;;;;;;;;;;;;12.19;53.91;101732.25;4918974;28;116110;-68
2022/04/28 04:14:58;;;;;;;;;;;;;;;12.19;54.11;101741.16;4920865;28;127044;-63
2022/04/28 04:17:23;;;;;;;;;;;;;;;12.20;53.76;101736.56;4920584;28;122831;-65
2022/04/28 04:19:49;;;;;;;;;;;;;;;12.21;54.11;101730.91;4925116;28;128123;-66
2022/04/28 04:22:15;;;;;;;;;;;;;;;12.22;53.93;101742.53;4925984;28;98644;-66
2022/04/28 04:24:41;;;;;;;;;;;;;;;12.22;53.96;101743.38;4921081;28;106732;-67
2022/04/28 04:27:07;;;;;;;;;;;;;;;12.24;54.01;101735.00;4921884;28;102667;-66
2022/04/28 04:29:33;;;;;;;;;;;;;;;12.26;54.32;101731.00;4919213;28;98549;-64
2022/04/28 04:32:17;;;;;;;;;;;;;;;12.28;54.11;101752.38;4919977;28;128140;-64
2022/04/28 04:34:43;;;;;;;;;;;;;;;12.27;54.04;101759.66;4933728;28;98086;-68
2022/04/28 04:37:09;;;;;;;;;;;;;;;12.29;54.31;101756.69;4921547;28;98062;-66
2022/04/28 04:39:35;;;;;;;;;;;;;;;12.32;54.28;101750.00;4919775;28;129010;-63
2022/04/28 04:42:01;;;;;;;;;;;;;;;12.36;54.06;101762.75;4920012;28;127659;-64
2022/04/28 04:44:27;;;;;;;;;;;;;;;12.39;54.34;101759.56;4920146;28;123879;-63
2022/04/28 04:46:53;;;;;;;;;;;;;;;12.45;54.33;101761.25;4917794;28;123141;-63
2022/04/28 04:49:19;;;;;;;;;;;;;;;12.49;54.20;101762.41;4917292;28;127470;-63
2022/04/28 04:51:45;;;;;;;;;;;;;;;12.53;54.36;101760.84;4919520;28;128514;-66
2022/04/28 04:54:11;;;;;;;;;;;;;;;12.60;54.32;101762.56;4933833;28;98112;-66
2022/04/28 04:56:38;;;;;;;;;;;;;;;12.67;54.08;101764.03;4931391;28;118772;-63
2022/04/28 04:59:04;;;;;;;;;;;;;;;12.74;54.08;101761.97;4927198;28;99014;-63
2022/04/28 05:01:32;;;;;;;;;;;;;;;12.78;53.93;101754.97;4918865;28;114761;-63
2022/04/28 05:03:57;;;;;;;;;;;;;;;12.78;53.85;101754.97;4920641;28;98053;-66
2022/04/28 05:06:23;;;;;;;;;;;;;;;12.81;54.05;101758.22;4920172;28;120465;-66
2022/04/28 05:08:49;;;;;;;;;;;;;;;12.81;54.17;101759.06;4918499;28;126287;-65
2022/04/28 05:11:17;;;;;;;;;;;;;;;12.81;54.14;101759.06;4919730;28;122684;-66
2022/04/28 05:13:43;;;;;;;;;;;;;;;12.83;54.27;101759.63;4919662;28;98145;-67
2022/04/28 05:16:09;;;;;;;;;;;;;;;12.82;54.49;101758.00;4921023;28;104640;-66
2022/04/28 05:18:35;;;;;;;;;;;;;;;12.83;54.38;101756.91;4919480;28;117247;-63
2022/04/28 05:21:00;;;;;;;;;;;;;;;12.91;54.29;101764.59;4933886;28;128564;-63
2022/04/28 05:23:27;;;;;;;;;;;;;;;13.08;54.16;101761.81;4939019;28;126330;-66
2022/04/28 05:25:52;;;;;;;;;;;;;;;13.31;54.04;101765.38;4921281;28;98163;-63
2022/04/28 05:28:18;;;;;;;;;;;;;;;13.62;53.40;101775.44;4919224;28;118148;-63
2022/04/28 05:30:44;;;;;;;;;;;;;;;13.90;53.06;101770.81;4920093;28;98443;-63
2022/04/28 05:33:10;;;;;;;;;;;;;;;14.12;52.62;101771.56;4920175;28;98637;-63
2022/04/28 05:35:38;;;;;;;;;;;;;;;14.34;52.61;101767.91;4919368;28;121800;-65
2022/04/28 05:38:04;;;;;;;;;;;;;;;14.43;52.52;101769.88;4919373;28;124930;-66
2022/04/28 05:40:30;;;;;;;;;;;;;;;14.52;52.74;101767.50;4919567;28;128258;-66
2022/04/28 05:45:43;;;;;;;;;;;;;;;14.57;52.81;101783.81;4929791;28;98423;-66
2022/04/28 05:48:16;;;;;;;;;;;;;;;14.63;52.46;101779.25;4917965;28;98509;-63
2022/04/28 05:50:42;;;;;;;;;;;;;;;14.77;52.82;101788.53;4920536;28;98357;-63
2022/04/28 05:53:08;;;;;;;;;;;;;;;14.87;52.64;101790.50;4920766;28;97980;-63
2022/04/28 05:55:35;;;;;;;;;;;;;;;14.87;52.52;101793.22;4922029;28;97877;-66
2022/04/28 05:58:01;;;;;;;;;;;;;;;14.92;52.78;101798.66;4933148;28;120116;-65
2022/04/28 06:00:27;;;;;;;;;;;;;;;15.00;52.60;101790.00;4918802;28;126781;-66
2022/04/28 06:02:53;;;;;;;;;;;;;;;15.05;52.75;101794.63;4919490;28;98584;-66
2022/04/28 06:05:19;;;;;;;;;;;;;;;15.18;52.25;101794.16;4918933;28;123316;-64
2022/04/28 06:07:45;;;;;;;;;;;;;;;15.75;51.22;101792.44;4918324;28;128191;-67
2022/04/28 06:10:12;;;;;;;;;;;;;;;16.06;50.98;101801.41;4918690;28;128338;-64
2022/04/28 06:12:38;;;;;;;;;;;;;;;16.25;50.91;101790.81;4919899;28;98188;-63
2022/04/28 06:15:04;;;;;;;;;;;;;;;16.49;50.44;101810.09;4918830;28;122308;-63
2022/04/28 06:17:30;;;;;;;;;;;;;;;17.01;49.70;101809.72;4918448;28;126941;-66
2022/04/28 06:19:56;;;;;;;;;;;;;;;17.30;49.46;101814.53;4923827;28;126572;-63
2022/04/28 06:22:22;;;;;;;;;;;;;;;17.25;49.66;101823.53;4938000;28;127672;-66
2022/04/28 06:24:54;;;;;;;;;;;;;;;17.27;49.84;101817.78;4932764;28;121818;-66
2022/04/28 06:27:20;;;;;;;;;;;;;;;17.29;49.72;101815.59;4918585;28;128864;-66
2022/04/28 06:29:48;;;;;;;;;;;;;;;17.34;49.75;101830.03;4919917;28;98576;-63
2022/04/28 06:32:16;;;;;;;;;;;;;;;17.44;49.34;101812.78;4919527;28;98823;-65
2022/04/28 06:34:42;;;;;;;;;;;;;;;17.55;49.24;101808.09;4919465;28;97935;-67
2022/04/28 06:37:08;;;;;;;;;;;;;;;17.95;48.75;101815.22;4919034;28;99005;-65
2022/04/28 06:39:34;;;;;;;;;;;;;;;18.09;48.81;101823.59;4918301;28;126903;-65
2022/04/28 06:42:00;;;;;;;;;;;;;;;18.25;48.64;101818.81;4919319;28;103870;-63
2022/04/28 06:44:26;;;;;;;;;;;;;;;18.33;48.66;101815.47;4918062;28;122021;-63
2022/04/28 06:46:52;;;;;;;;;;;;;;;18.73;48.11;101821.66;4932828;28;126937;-66
2022/04/28 06:49:18;;;;;;;;;;;;;;;19.18;47.48;101817.56;4915811;28;127717;-66
2022/04/28 06:51:44;;;;;;;;;;;;;;;19.61;47.05;101818.38;4918796;28;115831;-63
2022/04/28 06:54:10;;;;;;;;;;;;;;;20.27;46.51;101815.69;4918151;28;121356;-65
2022/04/28 06:56:35;;;;;;;;;;;;;;;20.09;47.11;101823.66;4928387;28;127481;-66
2022/04/28 06:59:01;;;;;;;;;;;;;;;20.64;46.38;101824.94;4923465;28;127462;-66
2022/04/28 07:01:27;;;;;;;;;;;;;;;21.18;46.12;101821.41;4918227;28;128450;-63
2022/04/28 07:03:53;;;;;;;;;;;;;;;21.47;46.20;101826.53;4918531;28;121970;-64
2022/04/28 07:06:19;;;;;;;;;;;;;;;22.00;45.76;101825.84;4918396;28;128044;-63
2022/04/28 07:08:45;;;;;;;;;;;;;;;22.53;45.51;101836.06;4916028;28;127395;-63
2022/04/28 07:11:11;;;;;;;;;;;;;;;22.37;46.26;101834.84;4918046;28;127128;-67
2022/04/28 07:13:37;;;;;;;;;;;;;;;22.98;45.61;101832.41;4919198;28;98544;-63
2022/04/28 07:16:04;;;;;;;;;;;;;;;23.26;45.58;101832.94;4919524;28;98470;-63
2022/04/28 07:18:30;;;;;;;;;;;;;;;23.53;45.71;101831.84;4918743;28;98834;-66
2022/04/28 07:20:58;;;;;;;;;;;;;;;24.10;45.23;101833.69;4931241;28;125012;-63
2022/04/28 07:23:23;;;;;;;;;;;;;;;24.64;45.25;101834.03;4919120;28;98097;-66
2022/04/28 07:25:49;;;;;;;;;;;;;;;25.11;44.81;101836.75;4917882;28;128202;-63
2022/04/28 07:28:15;;;;;;;;;;;;;;;25.63;44.72;101828.16;4915152;28;127073;-63
2022/04/28 07:30:41;;;;;;;;;;;;;;;26.13;44.23;101839.09;4918943;28;102345;-63
2022/04/28 07:33:08;;;;;;;;;;;;;;;26.62;44.09;101839.22;4920470;28;120663;-67
2022/04/28 07:35:34;;;;;;;;;;;;;;;27.14;43.84;101844.09;4922312;28;97955;-66
2022/04/28 07:38:00;;;;;;;;;;;;;;;27.61;43.61;101842.75;4921539;28;98729;-63
2022/04/28 07:40:26;;;;;;;;;;;;;;;28.12;43.27;101843.84;4921104;28;125335;-63
2022/04/28 07:42:52;;;;;;;;;;;;;;;28.62;42.75;101842.41;4922483;28;97821;-63
2022/04/28 07:45:18;;;;;;;;;;;;;;;29.10;42.32;101847.94;4921790;28;124960;-63
2022/04/28 07:47:44;;;;;;;;;;;;;;;29.59;42.28;101850.25;4920567;28;124029;-63
2022/04/28 07:50:10;;;;;;;;;;;;;;;29.99;42.00;101849.91;4921892;28;107942;-63
2022/04/28 07:52:39;;;;;;;;;;;;;;;30.34;41.47;101843.44;4920806;28;120585;-67
2022/04/28 07:55:06;;;;;;;;;;;;;;;30.78;41.57;101843.03;4922219;28;98941;-63
2022/04/28 07:57:32;;;;;;;;;;;;;;;31.43;40.66;101848.38;4940388;28;99012;-63
2022/04/28 07:59:58;;;;;;;;;;;;;;;32.22;39.96;101847.31;4922287;28;98276;-66
2022/04/28 08:02:24;;;;;;;;;;;;;;;33.02;39.00;101855.25;4920368;28;120392;-63
2022/04/28 08:04:50;;;;;;;;;;;;;;;33.71;38.34;101849.63;4922191;28;98223;-67
2022/04/28 08:07:16;;;;;;;;;;;;;;;34.37;37.88;101851.44;4921086;28;98799;-66
2022/04/28 08:09:42;;;;;;;;;;;;;;;35.09;36.81;101843.84;4921371;28;98274;-66
2022/04/28 08:12:09;;;;;;;;;;;;;;;35.74;36.50;101848.03;4920540;28;122620;-63
2022/04/28 08:14:35;;;;;;;;;;;;;;;36.42;36.05;101850.44;4921648;28;98930;-65
2022/04/28 08:17:01;;;;;;;;;;;;;;;37.16;35.34;101853.00;4920919;28;98635;-63
2022/04/28 08:19:27;;;;;;;;;;;;;;;37.90;34.64;101848.53;4922741;28;98181;-67
2022/04/28 08:21:53;;;;;;;;;;;;;;;38.67;33.88;101850.50;4931920;28;120761;-67
2022/04/28 08:24:19;;;;;;;;;;;;;;;39.37;33.60;101848.84;4920177;28;129025;-64
2022/04/28 08:26:45;;;;;;;;;;;;;;;39.86;32.97;101838.56;4920035;28;128072;-68
2022/04/28 08:29:10;;;;;;;;;;;;;;;40.61;32.38;101842.41;4912659;28;113757;-63
2022/04/28 08:31:43;;;;;;;;;;;;;;;41.40;31.52;101843.09;4920756;28;122459;-63
2022/04/28 08:34:13;;;;;;;;;;;;;;;42.11;31.16;101831.63;4921249;28;98613;-63
2022/04/28 08:36:42;;;;;;;;;;;;;;;42.68;30.95;101840.25;4919197;28;98158;-64
2022/04/28 08:39:08;;;;;;;;;;;;;;;43.11;30.39;101834.66;4920107;28;101229;-67
2022/04/28 08:41:35;;;;;;;;;;;;;;;43.85;29.80;101826.56;4935269;28;122559;-67
2022/04/28 08:44:02;;;;;;;;;;;;;;;44.67;28.92;101830.91;4920440;28;97980;-68
2022/04/28 08:49:13;;;;;;;;;;;;;;;45.82;28.21;101824.38;4919690;28;98266;-64
2022/04/28 08:51:39;;;;;;;;;;;;;;;46.50;27.60;101821.00;4921053;28;97954;-68
2022/04/28 08:54:09;;;;;;;;;;;;;;;47.03;27.14;101828.78;4919545;28;119120;-65
2022/04/28 08:56:35;;;;;;;;;;;;;;;47.54;26.68;101818.25;4918672;28;98293;-68
2022/04/28 08:59:01;;;;;;;;;;;;;;;48.00;26.46;101809.09;4913358;28;126445;-67
2022/04/28 09:01:27;;;;;;;;;;;;;;;48.25;26.47;101814.13;4916049;28;116724;-64
2022/04/28 09:03:57;;;;;;;;;;;;;;;48.65;26.19;101801.88;4934337;28;98589;-65
2022/04/28 09:06:30;;;;;;;;;;;;;;;48.73;25.98;101792.84;4920368;28;99049;-64
2022/04/28 09:08:57;;;;;;;;;;;;;;;49.00;25.80;101792.38;4920821;28;98369;-64
2022/04/28 09:11:25;;;;;;;;;;;;;;;49.19;25.54;101798.53;4920362;28;97815;-64
2022/04/28 09:14:10;;;;;;;;;;;;;;;48.62;25.70;101782.09;4920522;28;98805;-65
2022/04/28 09:16:42;;;;;;;;;;;;;;;47.78;26.58;101781.00;4921021;28;98118;-68
2022/04/28 09:19:10;;;;;;;;;;;;;;;47.46;26.85;101790.13;4919912;28;98819;-65
2022/04/28 09:21:36;;;;;;;;;;;;;;;47.58;26.77;101782.50;4933284;28;97702;-62
2022/04/28 09:24:02;;;;;;;;;;;;;;;47.83;26.46;101781.09;4920306;28;97983;-64
2022/04/28 09:26:29;;;;;;;;;;;;;;;48.26;25.93;101783.47;4920739;28;99191;-62
2022/04/28 09:28:55;;;;;;;;;;;;;;;48.76;25.37;101780.41;4917808;28;98068;-64
2022/04/28 09:31:21;;;;;;;;;;;;;;;49.46;24.73;101784.97;4919630;28;122433;-65
2022/04/28 09:33:50;;;;;;;;;;;;;;;50.12;24.03;101780.94;4919286;28;125782;-62
2022/04/28 09:36:17;;;;;;;;;;;;;;;49.50;24.57;101771.22;4920763;28;99080;-63
2022/04/28 09:38:43;;;;;;;;;;;;;;;48.03;25.54;101766.03;4920661;28;98067;-62
2022/04/28 09:43:57;;;;;;;;;;;;;;;44.54;27.64;101755.13;4919344;28;98004;-65
2022/04/28 09:46:23;;;;;;;;;;;;;;;42.99;28.34;101744.78;4920672;28;98478;-61
2022/04/28 09:48:50;;;;;;;;;;;;;;;41.83;28.69;101746.41;4919638;28;98087;-63
2022/04/28 09:51:21;;;;;;;;;;;;;;;40.92;28.94;101743.88;4920317;28;97587;-66
2022/04/28 09:53:48;;;;;;;;;;;;;;;40.15;29.09;101744.75;4919481;28;99154;-66
2022/04/28 09:56:15;;;;;;;;;;;;;;;39.83;29.12;101737.06;4928325;28;98129;-64
2022/04/28 09:58:41;;;;;;;;;;;;;;;40.27;28.35;101749.69;4926472;28;97921;-65
2022/04/28 10:01:07;;;;;;;;;;;;;;;39.74;28.52;101748.97;4919291;28;122165;-66
2022/04/28 10:03:33;;;;;;;;;;;;;;;40.29;26.74;101752.88;4918912;28;126890;-65
2022/04/28 10:06:02;;;;;;;;;;;;;;;38.83;26.74;101742.84;4919398;28;97944;-65
2022/04/28 10:08:30;;;;;;;;;;;;;;;37.92;26.46;101744.00;4919649;28;98430;-65
2022/04/28 10:10:56;;;;;;;;;;;;;;;38.62;24.84;101743.22;4920333;28;97695;-63
2022/04/28 10:13:22;;;;;;;;;;;;;;;38.13;25.24;101738.03;4919005;28;128398;-64
2022/04/28 10:15:54;;;;;;;;;;;;;;;40.07;23.39;101746.16;4920312;28;98500;-64
2022/04/28 10:18:21;;;;;;;;;;;;;;;40.36;22.95;101741.38;4917485;28;98846;-64
2022/04/28 10:20:47;;;;;;;;;;;;;;;39.78;23.21;101754.53;4921421;28;119888;-63
2022/04/28 10:23:14;;;;;;;;;;;;;;;38.94;23.49;101751.06;4930658;28;126862;-64
2022/04/28 10:34:11;;;;;;;;;;;;;;;37.31;23.81;101750.47;4937666;28;97926;-66
2022/04/28 10:36:53;;;;;;;;;;;;;;;35.57;24.94;101745.22;4919844;28;98135;-63
2022/04/28 10:39:33;;;;;;;;;;;;;;;34.28;25.73;101747.53;4919513;28;98595;-63
2022/04/28 10:41:59;;;;;;;;;;;;;;;33.14;26.15;101746.03;4919604;28;97705;-63
2022/04/28 10:44:29;;;;;;;;;;;;;;;33.39;25.42;101739.72;4918349;28;126071;-63
2022/04/28 10:46:59;;;;;;;;;;;;;;;32.32;26.21;101748.22;4918713;28;126185;-64
2022/04/28 10:49:25;;;;;;;;;;;;;;;32.93;25.32;101743.09;4919440;28;97921;-63
2022/04/28 10:51:56;;;;;;;;;;;;;;;34.78;24.22;101744.66;4919419;28;97859;-63
2022/04/28 10:54:23;;;;;;;;;;;;;;;34.32;24.87;101749.13;4919376;28;98774;-64
2022/04/28 10:56:56;;;;;;;;;;;;;;;34.76;24.14;101749.88;4931860;28;98953;-64
2022/04/28 10:59:31;;;;;;;;;;;;;;;33.41;25.24;101757.72;4922372;28;98317;-63
2022/04/28 11:02:15;;;;;;;;;;;;;;;32.63;25.85;101751.69;4919703;28;98128;-64
2022/04/28 11:04:42;;;;;;;;;;;;;;;32.25;26.02;101750.97;4919071;28;98568;-67
2022/04/28 11:07:10;;;;;;;;;;;;;;;32.25;25.74;101748.97;4918466;28;111158;-63
2022/04/28 11:09:50;;;;;;;;;;;;;;;31.19;26.33;101748.56;4921419;28;116009;-64
2022/04/28 11:12:20;;;;;;;;;;;;;;;31.14;26.26;101749.72;4922465;28;99852;-64
2022/04/28 11:14:52;;;;;;;;;;;;;;;30.21;26.96;101750.25;4922832;28;98362;-62
2022/04/28 11:17:21;;;;;;;;;;;;;;;29.53;27.73;101754.50;4922389;28;98308;-62
2022/04/28 11:19:47;;;;;;;;;;;;;;;28.99;28.00;101755.31;4936557;28;97767;-64
2022/04/28 11:22:13;;;;;;;;;;;;;;;29.53;27.02;101748.94;4921592;28;122519;-64
2022/04/28 11:24:42;;;;;;;;;;;;;;;30.72;26.38;101749.88;4921650;28;126756;-62
2022/04/28 11:27:12;;;;;;;;;;;;;;;30.06;27.17;101746.38;4936666;28;99063;-64
2022/04/28 11:29:42;;;;;;;;;;;;;;;29.49;27.34;101745.28;4920364;28;110135;-62
2022/04/28 11:32:11;;;;;;;;;;;;;;;29.00;27.97;101746.63;4922613;28;97877;-64
2022/04/28 11:34:37;;;;;;;;;;;;;;;28.55;27.93;101759.03;4920107;28;98963;-64
2022/04/28 11:37:17;;;;;;;;;;;;;;;28.17;28.25;101748.56;4921884;28;123924;-62
2022/04/28 11:39:46;;;;;;;;;;;;;;;28.58;27.85;101754.75;4921873;28;98517;-62
2022/04/28 11:42:13;;;;;;;;;;;;;;;29.78;26.53;101752.22;4919926;28;121342;-62
2022/04/28 11:44:46;;;;;;;;;;;;;;;30.37;26.78;101739.78;4922257;28;98539;-66
2022/04/28 11:47:12;;;;;;;;;;;;;;;31.02;26.64;101752.72;4922817;28;98623;-65
2022/04/28 11:49:40;;;;;;;;;;;;;;;31.71;26.06;101739.25;4921461;28;109204;-62
2022/04/28 11:52:25;;;;;;;;;;;;;;;31.48;26.51;101747.78;4919505;28;97869;-63
2022/04/28 11:55:03;;;;;;;;;;;;;;;30.61;27.13;101748.91;4921262;28;129008;-63
2022/04/28 11:57:29;;;;;;;;;;;;;;;29.98;27.84;101739.09;4919326;28;98055;-62
2022/04/28 11:59:55;;;;;;;;;;;;;;;29.73;27.87;101733.88;4921210;28;106329;-62
2022/04/28 12:02:35;;;;;;;;;;;;;;;29.18;27.96;101733.16;4921425;28;97869;-62
2022/04/28 12:05:18;;;;;;;;;;;;;;;28.65;27.88;101732.75;4921233;28;120425;-62
2022/04/28 12:07:51;;;;;;;;;;;;;;;28.18;28.10;101733.56;4922295;28;98424;-64
2022/04/28 12:15:57;;;;;;;;;;;;;;;30.97;26.60;101731.59;4916921;28;98022;-63
2022/04/28 12:21:22;;;;;;;;;;;;;;;31.57;26.61;101741.09;4933859;28;97943;-64
2022/04/28 12:23:50;;;;;;;;;;;;;;;31.59;26.60;101736.75;4920740;28;98072;-64
2022/04/28 12:26:19;;;;;;;;;;;;;;;30.75;27.34;101738.81;4920388;28;127025;-62
2022/04/28 12:28:45;;;;;;;;;;;;;;;30.15;27.32;101735.03;4921619;28;99064;-62
2022/04/28 12:31:12;;;;;;;;;;;;;;;29.64;27.59;101727.78;4921495;28;97997;-63
2022/04/28 12:33:39;;;;;;;;;;;;;;;29.21;27.97;101737.19;4920962;28;98158;-62
2022/04/28 12:36:13;;;;;;;;;;;;;;;29.50;27.23;101731.03;4920799;28;99036;-64
2022/04/28 12:38:44;;;;;;;;;;;;;;;28.86;28.10;101729.66;4921028;28;98803;-64
2022/04/28 12:41:22;;;;;;;;;;;;;;;28.27;28.15;101728.63;4921628;28;97904;-63
2022/04/28 12:43:52;;;;;;;;;;;;;;;27.77;28.50;101726.53;4921235;28;97757;-64
2022/04/28 12:46:22;;;;;;;;;;;;;;;27.38;28.56;101721.47;4921395;28;98350;-63
2022/04/28 12:48:54;;;;;;;;;;;;;;;27.09;28.77;101730.09;4920944;28;98925;-62
2022/04/28 12:51:21;;;;;;;;;;;;;;;26.77;28.70;101727.13;4921753;28;98138;-62
2022/04/28 12:53:52;;;;;;;;;;;;;;;26.57;28.76;101719.78;4920793;28;98145;-63
2022/04/28 12:56:39;;;;;;;;;;;;;;;26.29;29.25;101717.69;4919538;28;99882;-63
2022/04/28 12:59:07;;;;;;;;;;;;;;;27.18;28.25;101714.16;4901717;28;100530;-64
2022/04/28 13:01:33;;;;;;;;;;;;;;;27.02;28.66;101707.72;4920981;28;98055;-63
2022/04/28 13:04:09;;;;;;;;;;;;;;;26.68;29.10;101715.38;4920121;28;98069;-64
2022/04/28 13:06:39;;;;;;;;;;;;;;;26.83;28.74;101714.66;4921107;28;98734;-62
2022/04/28 13:09:07;;;;;;;;;;;;;;;26.41;29.10;101712.16;4921096;28;98918;-62